Time;durP1;ratioP1;P1;durP2;ratioP2;P2;SDS_P1;SDS_P2;PMS_P1;PMS_P2;Temp;Humidity;BMP_temperature;BMP_pressure;BME280_temperature;BME280_humidity;BME280_pressure;Samples;Min_cycle;Max_cycle;Signal;HPM_P1;HPM_P2
2023/02/21 02:15:18;;;;;;;8.23;2.93;;;7.20;99.90;;;;;;4146468;28;20068;-62
2023/02/21 02:17:37;;;;;;;5.97;2.80;;;7.70;99.90;;;;;;4148156;28;20037;-61
2023/02/21 02:19:57;;;;;;;5.40;2.50;;;8.10;99.90;;;;;;4146786;28;20096;-61
2023/02/21 02:22:16;;;;;;;3.97;2.05;;;8.30;99.90;;;;;;4147336;28;20038;-61
2023/02/21 02:24:53;;;;;;;3.47;2.20;;;8.50;99.90;;;;;;4147636;28;20026;-61
2023/02/21 02:27:18;;;;;;;6.03;1.80;;;8.70;99.90;;;;;;4147827;28;20475;-61
2023/02/21 02:29:24;;;;;;;5.20;2.07;;;8.80;99.90;;;;;;4147834;28;20018;-61
2023/02/21 02:31:31;;;;;;;3.20;2.10;;;8.90;99.90;;;;;;4133093;28;20426;-62
2023/02/21 02:34:07;;;;;;;3.30;1.90;;;9.00;99.90;;;;;;4163007;28;20115;-61
2023/02/21 02:36:11;;;;;;;2.97;2.03;;;9.10;99.90;;;;;;4160428;28;20088;-62
2023/02/21 02:38:21;;;;;;;6.47;2.00;;;9.20;99.90;;;;;;4163310;28;20474;-63
2023/02/21 02:40:32;;;;;;;4.13;2.42;;;9.20;99.90;;;;;;4164076;28;20179;-63
2023/02/21 02:42:51;;;;;;;5.23;2.67;;;9.20;99.90;;;;;;4159653;28;20104;-63
2023/02/21 02:44:58;;;;;;;4.83;2.27;;;9.10;99.90;;;;;;4146810;28;20038;-63
2023/02/21 02:47:02;;;;;;;3.90;2.40;;;9.10;99.90;;;;;;4146822;28;20021;-61
2023/02/21 02:49:21;;;;;;;4.27;2.33;;;9.10;99.90;;;;;;4154465;28;20034;-64
2023/02/21 02:51:24;;;;;;;3.67;2.43;;;9.10;99.90;;;;;;4163194;28;20362;-64
2023/02/21 02:53:28;;;;;;;3.87;2.60;;;9.00;99.90;;;;;;4163035;28;20033;-60
2023/02/21 02:55:39;;;;;;;4.47;2.17;;;9.00;99.90;;;;;;4161171;28;20083;-61
2023/02/21 02:57:47;;;;;;;;;;;9.10;99.90;;;;;;4157108;28;20049;-62
2023/02/21 02:59:48;;;;;;;5.23;2.20;;;9.10;99.90;;;;;;4162937;28;19968;-62
2023/02/21 03:01:52;;;;;;;2.60;2.27;;;9.10;99.90;;;;;;4162962;28;20403;-61
2023/02/21 03:04:29;;;;;;;4.63;1.73;;;9.10;99.90;;;;;;4158519;28;20463;-61
2023/02/21 03:06:39;;;;;;;4.67;1.80;;;9.00;99.90;;;;;;4144507;28;20564;-61
2023/02/21 03:08:43;;;;;;;4.50;2.22;;;9.00;99.90;;;;;;4146815;28;20076;-61
2023/02/21 03:10:51;;;;;;;3.70;2.17;;;9.00;99.90;;;;;;4146969;28;20026;-61
2023/02/21 03:13:19;;;;;;;5.70;2.40;;;9.00;99.90;;;;;;4146700;28;20038;-61
2023/02/21 03:15:23;;;;;;;2.27;1.90;;;9.00;99.90;;;;;;4152532;28;20030;-62
2023/02/21 03:17:27;;;;;;;6.87;2.63;;;8.90;99.90;;;;;;4155516;28;20832;-61
2023/02/21 03:19:34;;;;;;;4.47;1.90;;;8.90;99.90;;;;;;4145875;28;20058;-61
2023/02/21 03:21:58;;;;;;;4.30;2.10;;;8.80;99.90;;;;;;4145838;28;20049;-63
2023/02/21 03:24:01;;;;;;;3.63;1.73;;;8.70;99.90;;;;;;4147139;28;20080;-61
2023/02/21 03:26:06;;;;;;;4.17;1.70;;;8.70;99.90;;;;;;4152321;28;20473;-63
2023/02/21 03:28:08;;;;;;;6.07;1.80;;;8.60;99.90;;;;;;4162575;28;20030;-62
2023/02/21 03:30:10;;;;;;;5.20;2.13;;;8.60;99.90;;;;;;4162554;28;20045;-62
2023/02/21 03:34:29;;;;;;;5.67;1.97;;;8.50;99.90;;;;;;4130131;28;20568;-64
2023/02/21 03:36:31;;;;;;;3.20;2.10;;;8.50;99.90;;;;;;4130015;28;20046;-61
2023/02/21 03:38:33;;;;;;;3.87;2.00;;;8.50;99.90;;;;;;4129536;28;20034;-61
2023/02/21 03:40:35;;;;;;;5.13;2.03;;;8.40;99.90;;;;;;4130871;28;20038;-62
2023/02/21 03:42:36;;;;;;;4.73;2.10;;;8.40;99.90;;;;;;4134726;28;20394;-64
2023/02/21 03:44:37;;;;;;;5.07;1.90;;;8.40;99.90;;;;;;4163154;28;20091;-63
2023/02/21 03:46:38;;;;;;;4.33;2.90;;;8.30;99.90;;;;;;4161792;28;20385;-61
2023/02/21 03:48:39;;;;;;;2.87;1.93;;;8.30;99.90;;;;;;4157974;28;20525;-67
2023/02/21 03:50:40;;;;;;;3.37;2.10;;;8.30;99.90;;;;;;4145443;28;20056;-62
2023/02/21 03:52:41;;;;;;;6.23;2.40;;;8.30;99.90;;;;;;4146466;28;20472;-66
2023/02/21 03:54:43;;;;;;;5.83;2.77;;;8.30;99.90;;;;;;4145311;28;20107;-62
2023/02/21 03:56:44;;;;;;;7.07;2.70;;;8.30;99.90;;;;;;4146629;28;20478;-61
2023/02/21 03:58:45;;;;;;;5.33;2.47;;;8.30;99.90;;;;;;4145135;28;20042;-61
2023/02/21 04:00:46;;;;;;;5.27;2.27;;;8.30;99.90;;;;;;4152560;28;20113;-63
2023/02/21 04:02:47;;;;;;;4.63;2.07;;;8.20;99.90;;;;;;4153025;28;20034;-62
2023/02/21 04:04:49;;;;;;;3.30;2.47;;;8.20;99.90;;;;;;4147667;28;20029;-63
2023/02/21 04:06:50;;;;;;;6.67;2.87;;;8.20;99.90;;;;;;4154582;28;20486;-61
2023/02/21 04:08:51;;;;;;;3.50;2.37;;;8.20;99.90;;;;;;4146289;28;20045;-61
2023/02/21 04:10:52;;;;;;;5.10;2.07;;;8.20;99.90;;;;;;4159521;28;20477;-61
2023/02/21 04:12:53;;;;;;;9.10;2.47;;;8.20;99.90;;;;;;4159100;28;20025;-62
2023/02/21 04:14:55;;;;;;;5.10;2.33;;;8.20;99.90;;;;;;4156410;28;20029;-62
2023/02/21 04:16:56;;;;;;;2.70;1.70;;;8.20;99.90;;;;;;4159714;28;20029;-61
2023/02/21 04:18:57;;;;;;;5.73;3.00;;;8.20;99.90;;;;;;4162266;28;20518;-61
2023/02/21 04:20:58;;;;;;;3.20;1.80;;;8.20;99.90;;;;;;4160825;28;20029;-62
2023/02/21 04:22:59;;;;;;;6.43;2.23;;;8.20;99.90;;;;;;4148313;28;20042;-63
2023/02/21 04:25:01;;;;;;;4.80;1.67;;;8.20;99.90;;;;;;4145880;28;20108;-61
2023/02/21 04:27:02;;;;;;;7.60;2.30;;;8.20;99.90;;;;;;4147060;28;20038;-62
2023/02/21 04:29:04;;;;;;;4.10;2.37;;;8.20;99.90;;;;;;4144736;28;20548;-63
2023/02/21 04:31:05;;;;;;;2.80;1.80;;;8.20;99.90;;;;;;4146714;28;20407;-66
2023/02/21 04:33:06;;;;;;;6.33;2.33;;;8.30;99.90;;;;;;4145098;28;20490;-63
2023/02/21 04:35:07;;;;;;;4.67;2.13;;;8.30;99.90;;;;;;4145403;28;20077;-62
2023/02/21 04:37:08;;;;;;;4.10;2.40;;;8.30;99.90;;;;;;4145055;28;20025;-61
2023/02/21 04:39:09;;;;;;;3.77;1.93;;;8.30;99.90;;;;;;4144720;28;20091;-62
2023/02/21 04:41:11;;;;;;;2.80;2.00;;;8.30;99.90;;;;;;4149546;28;20087;-61
2023/02/21 04:43:12;;;;;;;5.70;2.40;;;8.20;99.90;;;;;;4154397;28;20104;-62
2023/02/21 04:45:13;;;;;;;4.27;1.60;;;8.30;99.90;;;;;;4133965;28;20087;-65
2023/02/21 04:47:14;;;;;;;3.40;1.97;;;8.30;99.90;;;;;;4144667;28;20034;-62
2023/02/21 04:49:15;;;;;;;5.90;1.80;;;8.30;99.90;;;;;;4146888;28;20402;-61
2023/02/21 04:51:20;;;;;;;3.53;2.20;;;8.40;99.90;;;;;;4146898;28;20091;-61
2023/02/21 04:53:21;;;;;;;3.17;2.07;;;8.40;99.90;;;;;;4155234;28;20111;-61
2023/02/21 04:55:22;;;;;;;4.23;2.27;;;8.40;99.90;;;;;;4159756;28;20042;-62
2023/02/21 04:57:24;;;;;;;3.20;1.77;;;8.50;99.90;;;;;;4155302;28;20053;-61
2023/02/21 04:59:26;;;;;;;5.37;2.70;;;8.50;99.90;;;;;;4150038;28;20041;-61
2023/02/21 05:01:30;;;;;;;3.40;2.50;;;8.50;99.90;;;;;;4156273;28;20050;-62
2023/02/21 05:03:31;;;;;;;5.70;3.30;;;8.40;99.90;;;;;;4144806;28;20042;-61
2023/02/21 05:05:32;;;;;;;30.90;20.40;;;8.50;99.90;;;;;;4145823;28;20029;-62
2023/02/21 05:07:33;;;;;;;21.87;14.30;;;8.40;99.90;;;;;;4149463;28;20096;-61
2023/02/21 05:09:34;;;;;;;7.03;5.40;;;8.50;99.90;;;;;;4155885;28;20045;-62
2023/02/21 05:11:35;;;;;;;143.93;84.87;;;8.60;99.90;;;;;;4159709;28;20548;-63
2023/02/21 05:13:37;;;;;;;32.83;23.03;;;8.60;99.90;;;;;;4141718;28;20050;-62
2023/02/21 05:15:39;;;;;;;5.97;3.97;;;8.70;99.90;;;;;;4149064;28;20041;-63
2023/02/21 05:17:40;;;;;;;4.70;2.63;;;8.80;99.90;;;;;;4159795;28;20060;-61
2023/02/21 05:19:41;;;;;;;3.23;2.60;;;8.80;99.90;;;;;;4158627;28;20100;-62
2023/02/21 05:21:42;;;;;;;4.50;1.90;;;8.80;99.90;;;;;;4153742;28;20037;-67
2023/02/21 05:23:54;;;;;;;4.70;2.17;;;8.80;99.90;;;;;;4159415;28;20049;-63
2023/02/21 05:25:55;;;;;;;5.40;2.67;;;8.80;99.90;;;;;;4159481;28;20048;-61
2023/02/21 05:27:56;;;;;;;5.87;2.00;;;8.80;99.90;;;;;;4160458;28;20452;-62
2023/02/21 05:29:57;;;;;;;4.97;1.93;;;8.80;99.90;;;;;;4160202;28;20033;-61
2023/02/21 05:31:58;;;;;;;8.20;2.60;;;8.90;99.90;;;;;;4161582;28;20081;-64
2023/02/21 05:33:59;;;;;;;3.90;2.10;;;9.10;99.90;;;;;;4145867;28;20096;-62
2023/02/21 05:36:01;;;;;;;2.80;1.50;;;9.20;99.90;;;;;;4143717;28;20034;-62
2023/02/21 05:38:02;;;;;;;3.70;2.00;;;9.40;99.90;;;;;;4143840;28;20108;-62
2023/02/21 05:40:04;;;;;;;6.03;2.30;;;9.60;99.90;;;;;;4148845;28;20049;-65
2023/02/21 05:42:06;;;;;;;4.73;2.03;;;9.80;99.90;;;;;;4144524;28;20030;-62
2023/02/21 05:44:07;;;;;;;7.93;2.43;;;9.90;99.90;;;;;;4150830;28;20462;-64
2023/02/21 05:46:18;;;;;;;5.17;2.00;;;10.10;99.90;;;;;;4154412;28;20088;-61
2023/02/21 05:48:22;;;;;;;9.07;1.93;;;10.20;99.90;;;;;;4158649;28;20049;-63
2023/02/21 05:50:24;;;;;;;5.73;2.33;;;10.40;99.90;;;;;;4158556;28;20049;-67
2023/02/21 05:52:25;;;;;;;5.27;1.73;;;10.50;99.90;;;;;;4158334;28;20449;-61
2023/02/21 05:54:26;;;;;;;4.63;2.20;;;10.70;99.90;;;;;;4159498;28;20080;-60
2023/02/21 05:56:27;;;;;;;4.67;1.80;;;10.80;99.90;;;;;;4157899;28;20034;-61
2023/02/21 05:58:29;;;;;;;4.37;2.20;;;10.80;99.90;;;;;;4160348;28;20367;-63
2023/02/21 06:00:30;;;;;;;2.43;1.83;;;11.00;99.90;;;;;;4159723;28;20090;-62
2023/02/21 06:02:31;;;;;;;4.30;2.00;;;11.00;99.90;;;;;;4161129;28;20033;-62
2023/02/21 06:04:32;;;;;;;5.83;3.77;;;11.10;99.90;;;;;;4159933;28;20862;-61
2023/02/21 06:06:34;;;;;;;7.30;2.00;;;11.20;99.90;;;;;;4163072;28;20033;-63
2023/02/21 06:08:47;;;;;;;4.77;3.00;;;11.40;99.90;;;;;;4162651;28;20413;-61
2023/02/21 06:10:48;;;;;;;5.33;2.13;;;11.60;99.90;;;;;;4164225;28;20030;-63
2023/02/21 06:12:49;;;;;;;6.40;2.20;;;11.70;99.90;;;;;;4163020;28;20079;-61
2023/02/21 06:14:50;;;;;;;6.60;2.00;;;11.80;99.90;;;;;;4163483;28;20089;-62
2023/02/21 06:16:51;;;;;;;5.40;1.83;;;11.90;99.90;;;;;;4163070;28;20033;-63
2023/02/21 06:18:55;;;;;;;3.93;2.10;;;12.10;99.90;;;;;;4163248;28;20432;-63
2023/02/21 06:20:56;;;;;;;5.97;1.90;;;12.00;99.90;;;;;;4163054;28;20042;-62
2023/02/21 06:22:57;;;;;;;3.77;2.03;;;12.10;99.90;;;;;;4160663;28;20025;-63
2023/02/21 06:24:59;;;;;;;4.30;2.60;;;12.20;99.90;;;;;;4159616;28;20041;-63
2023/02/21 06:27:00;;;;;;;9.20;1.70;;;12.60;99.90;;;;;;4160317;28;20083;-63
2023/02/21 06:29:01;;;;;;;5.30;2.27;;;12.90;99.90;;;;;;4144845;28;20092;-64
2023/02/21 06:31:03;;;;;;;5.03;2.20;;;13.10;99.90;;;;;;4159112;28;20079;-63
2023/02/21 06:33:05;;;;;;;7.93;2.40;;;13.20;99.70;;;;;;4158350;28;20462;-64
2023/02/21 06:35:06;;;;;;;7.37;2.90;;;13.20;99.30;;;;;;4145935;28;20525;-64
2023/02/21 06:37:07;;;;;;;8.53;4.00;;;13.20;99.30;;;;;;4147537;28;20037;-65
2023/02/21 06:39:09;;;;;;;9.00;4.53;;;13.10;99.10;;;;;;4162706;28;20029;-66
2023/02/21 06:41:11;;;;;;;4.93;2.57;;;13.10;99.00;;;;;;4162235;28;20038;-64
2023/02/21 06:43:13;;;;;;;7.23;2.73;;;13.10;98.70;;;;;;4146749;28;20441;-64
2023/02/21 06:45:14;;;;;;;9.03;5.57;;;13.20;98.50;;;;;;4146597;28;20033;-66
2023/02/21 06:47:16;;;;;;;10.53;5.20;;;13.30;98.20;;;;;;4147654;28;20022;-65
2023/02/21 06:49:17;;;;;;;3.20;2.10;;;13.40;98.20;;;;;;4146653;28;20037;-63
2023/02/21 06:51:27;;;;;;;3.40;2.33;;;13.30;98.00;;;;;;4150555;28;20022;-67
2023/02/21 06:53:28;;;;;;;4.05;2.22;;;13.20;97.70;;;;;;4147914;28;20050;-63
2023/02/21 06:55:30;;;;;;;6.90;2.57;;;13.20;97.60;;;;;;4154536;28;20083;-64
2023/02/21 06:57:31;;;;;;;10.00;2.80;;;13.20;97.50;;;;;;4149973;28;20494;-66
2023/02/21 06:59:32;;;;;;;6.20;2.47;;;13.30;97.40;;;;;;4146547;28;20046;-65
2023/02/21 07:01:33;;;;;;;4.67;2.00;;;13.30;97.20;;;;;;4133312;28;20038;-65
2023/02/21 07:03:38;;;;;;;4.47;2.20;;;13.20;97.10;;;;;;4130572;28;20046;-67
2023/02/21 07:05:40;;;;;;;5.80;3.13;;;13.20;97.10;;;;;;4137307;28;20362;-64
2023/02/21 07:07:42;;;;;;;3.93;2.73;;;13.30;97.10;;;;;;4163194;28;20057;-64
2023/02/21 07:09:43;;;;;;;4.13;1.90;;;13.20;96.90;;;;;;4162223;28;20037;-66
2023/02/21 07:11:45;;;;;;;7.00;1.97;;;13.10;96.90;;;;;;4163261;28;20038;-67
2023/02/21 07:13:57;;;;;;;7.57;3.23;;;13.00;97.20;;;;;;4149332;28;20076;-67
2023/02/21 07:15:59;;;;;;;6.77;2.50;;;13.10;97.10;;;;;;4146924;28;20085;-63
2023/02/21 07:18:00;;;;;;;4.43;2.27;;;13.10;97.10;;;;;;4147598;28;20038;-67
2023/02/21 07:20:03;;;;;;;7.90;2.17;;;13.40;97.00;;;;;;4148741;28;20041;-65
2023/02/21 07:22:04;;;;;;;5.23;1.97;;;13.50;96.80;;;;;;4145442;28;20148;-69
2023/02/21 07:24:05;;;;;;;6.73;1.97;;;13.40;96.60;;;;;;4146566;28;20084;-66
2023/02/21 07:26:06;;;;;;;3.60;1.93;;;13.30;96.60;;;;;;4145468;28;20125;-65
2023/02/21 07:28:08;;;;;;;6.83;2.60;;;13.40;96.70;;;;;;4143323;28;20022;-67
2023/02/21 07:30:10;;;;;;;5.27;1.93;;;13.40;96.60;;;;;;4147875;28;20022;-65
2023/02/21 07:32:11;;;;;;;7.57;2.03;;;13.50;96.60;;;;;;4145247;28;20096;-66
2023/02/21 07:34:13;;;;;;;3.43;2.07;;;13.40;96.50;;;;;;4146430;28;20026;-67
2023/02/21 07:36:15;;;;;;;6.37;2.20;;;13.30;96.70;;;;;;4144566;28;20042;-67
2023/02/21 07:38:24;;;;;;;6.73;3.03;;;13.20;96.80;;;;;;4137347;28;20084;-67
2023/02/21 07:40:25;;;;;;;7.77;2.47;;;13.20;96.50;;;;;;4129033;28;20038;-65
2023/02/21 07:42:26;;;;;;;9.27;2.67;;;13.20;96.90;;;;;;4129891;28;20050;-65
2023/02/21 07:44:28;;;;;;;10.30;2.20;;;12.90;96.80;;;;;;4128902;28;20080;-64
2023/02/21 07:46:29;;;;;;;9.87;2.80;;;13.10;97.00;;;;;;4133647;28;20453;-66
2023/02/21 07:48:31;;;;;;;5.13;3.30;;;13.30;96.90;;;;;;4145176;28;20536;-66
2023/02/21 07:50:32;;;;;;;5.17;2.10;;;13.20;96.70;;;;;;4144099;28;20536;-63
2023/02/21 07:52:33;;;;;;;5.03;2.50;;;13.20;96.80;;;;;;4144093;28;20030;-62
2023/02/21 07:54:35;;;;;;;5.63;2.67;;;13.20;96.80;;;;;;4147526;28;20034;-63
2023/02/21 07:56:42;;;;;;;13.60;3.07;;;13.30;96.70;;;;;;4159228;28;20029;-63
2023/02/21 07:58:43;;;;;;;5.10;1.83;;;13.50;96.40;;;;;;4161968;28;20033;-64
2023/02/21 08:00:44;;;;;;;5.00;2.20;;;13.60;96.40;;;;;;4161350;28;20543;-62
2023/02/21 08:02:48;;;;;;;5.70;3.00;;;13.60;96.40;;;;;;4161664;28;20029;-62
2023/02/21 08:04:51;;;;;;;7.00;2.13;;;13.70;96.20;;;;;;4161642;28;20354;-62
2023/02/21 08:06:58;;;;;;;7.23;2.47;;;13.70;96.10;;;;;;4161277;28;20057;-63
2023/02/21 08:09:00;;;;;;;7.30;3.30;;;13.60;96.10;;;;;;4161954;28;20539;-63
2023/02/21 08:11:01;;;;;;;8.23;2.50;;;13.70;96.10;;;;;;4160970;28;20063;-64
2023/02/21 08:13:02;;;;;;;7.47;2.13;;;13.80;96.00;;;;;;4162503;28;20061;-67
2023/02/21 08:15:05;;;;;;;4.07;2.43;;;13.70;95.80;;;;;;4160900;28;20029;-62
2023/02/21 08:17:06;;;;;;;3.87;1.70;;;13.60;95.90;;;;;;4162385;28;20147;-62
2023/02/21 08:19:08;;;;;;;4.30;2.17;;;13.30;96.10;;;;;;4161063;28;20037;-64
2023/02/21 08:21:10;;;;;;;7.60;1.93;;;13.20;96.40;;;;;;4161879;28;20462;-63
2023/02/21 08:23:11;;;;;;;5.90;2.00;;;13.20;96.40;;;;;;4160867;28;20050;-63
2023/02/21 08:25:14;;;;;;;5.80;2.17;;;12.80;96.50;;;;;;4161918;28;20095;-62
2023/02/21 08:27:16;;;;;;;3.17;2.03;;;12.60;96.80;;;;;;4160680;28;20045;-62
2023/02/21 08:29:17;;;;;;;5.63;2.13;;;12.40;97.10;;;;;;4160962;28;20046;-62
2023/02/21 08:31:18;;;;;;;4.20;2.07;;;12.20;97.40;;;;;;4160780;28;20026;-61
2023/02/21 08:33:20;;;;;;;9.40;5.10;;;12.10;97.50;;;;;;4161279;28;20088;-63
2023/02/21 08:35:21;;;;;;;5.47;2.00;;;12.00;97.70;;;;;;4161055;28;20470;-62
2023/02/21 08:37:22;;;;;;;6.20;1.67;;;12.00;97.80;;;;;;4161580;28;20033;-64
2023/02/21 08:39:23;;;;;;;4.10;1.70;;;12.00;97.80;;;;;;4161365;28;20034;-62
2023/02/21 08:41:24;;;;;;;12.27;3.03;;;12.00;98.00;;;;;;4160618;28;20045;-62
2023/02/21 08:43:26;;;;;;;7.10;3.47;;;11.90;98.10;;;;;;4161659;28;20029;-65
2023/02/21 08:45:29;;;;;;;4.70;2.43;;;11.90;98.20;;;;;;4160583;28;20075;-62
2023/02/21 08:47:35;;;;;;;6.37;2.23;;;12.00;98.40;;;;;;4161670;28;20030;-63
2023/02/21 08:49:38;;;;;;;5.10;1.93;;;12.00;98.40;;;;;;4160281;28;20423;-62
2023/02/21 08:51:40;;;;;;;8.20;2.43;;;11.90;98.60;;;;;;4161524;28;20029;-62
2023/02/21 08:53:41;;;;;;;2.50;1.60;;;11.80;98.50;;;;;;4160418;28;20014;-62
2023/02/21 08:55:44;;;;;;;3.00;2.00;;;11.80;98.70;;;;;;4161542;28;20275;-62
2023/02/21 08:57:48;;;;;;;5.43;2.17;;;11.90;98.60;;;;;;4158677;28;20045;-61
2023/02/21 08:59:49;;;;;;;4.33;2.10;;;11.90;98.60;;;;;;4161339;28;20029;-62
2023/02/21 09:01:50;;;;;;;4.00;2.10;;;12.00;98.60;;;;;;4160343;28;20481;-65
2023/02/21 09:03:51;;;;;;;5.13;1.87;;;12.20;98.50;;;;;;4161219;28;20099;-63
2023/02/21 09:05:52;;;;;;;3.77;2.00;;;12.50;98.30;;;;;;4160135;28;20099;-63
2023/02/21 09:08:00;;;;;;;2.90;1.57;;;12.70;98.00;;;;;;4161345;28;20041;-68
2023/02/21 09:10:01;;;;;;;11.80;2.30;;;12.90;97.80;;;;;;4160455;28;20022;-63
2023/02/21 09:12:02;;;;;;;6.30;2.10;;;13.20;97.60;;;;;;4160512;28;20087;-63
2023/02/21 09:14:05;;;;;;;4.80;1.77;;;13.40;97.40;;;;;;4160782;28;20017;-61
2023/02/21 09:16:06;;;;;;;4.17;1.67;;;13.60;97.20;;;;;;4160054;28;20128;-61
2023/02/21 09:18:07;;;;;;;4.97;2.27;;;13.80;97.00;;;;;;4159458;28;20438;-63
2023/02/21 09:20:12;;;;;;;3.97;2.00;;;14.00;96.90;;;;;;4159863;28;20421;-64
2023/02/21 09:22:13;;;;;;;5.40;1.90;;;14.10;96.50;;;;;;4161000;28;20037;-63
2023/02/21 09:24:14;;;;;;;7.37;4.03;;;14.10;96.50;;;;;;4160076;28;20422;-63
2023/02/21 09:26:16;;;;;;;12.10;6.53;;;14.20;96.40;;;;;;4161046;28;20029;-63
2023/02/21 09:28:18;;;;;;;8.93;4.73;;;14.10;96.10;;;;;;4159936;28;20149;-66
2023/02/21 09:30:23;;;;;;;21.30;11.67;;;14.10;96.20;;;;;;4160364;28;20486;-65
2023/02/21 09:32:24;;;;;;;5.63;2.67;;;14.20;96.20;;;;;;4159893;28;20087;-66
2023/02/21 09:34:26;;;;;;;5.17;3.23;;;14.20;96.10;;;;;;4160851;28;20096;-64
2023/02/21 09:36:27;;;;;;;6.83;2.20;;;14.20;95.90;;;;;;4159839;28;20022;-63
2023/02/21 09:38:28;;;;;;;5.10;2.07;;;14.10;96.00;;;;;;4161021;28;20319;-63
2023/02/21 09:40:34;;;;;;;2.50;1.70;;;14.00;96.00;;;;;;4160547;28;20086;-63
2023/02/21 09:42:36;;;;;;;3.13;1.97;;;13.90;95.80;;;;;;4163806;28;20029;-64
2023/02/21 09:44:37;;;;;;;4.43;2.83;;;13.90;95.90;;;;;;4163735;28;20025;-63
2023/02/21 09:46:39;;;;;;;3.43;1.63;;;13.80;95.90;;;;;;4163615;28;20025;-67
2023/02/21 09:48:42;;;;;;;2.27;1.33;;;13.80;96.00;;;;;;4163689;28;20025;-63
2023/02/21 09:50:47;;;;;;;3.20;1.93;;;13.90;96.00;;;;;;4163215;28;20045;-66
2023/02/21 09:52:49;;;;;;;4.10;1.70;;;13.90;96.00;;;;;;4163618;28;20527;-64
2023/02/21 09:54:55;;;;;;;5.33;2.03;;;13.90;96.00;;;;;;4163022;28;20046;-67
2023/02/21 09:56:59;;;;;;;5.80;1.50;;;13.90;95.80;;;;;;4163982;28;20045;-65
2023/02/21 09:59:00;;;;;;;4.10;2.00;;;14.00;96.00;;;;;;4163008;28;20025;-63
2023/02/21 10:01:12;;;;;;;3.17;1.93;;;14.00;96.30;;;;;;4164065;28;20053;-66
2023/02/21 10:03:58;;;;;;;5.27;1.67;;;14.00;95.90;;;;;;4162829;28;20033;-64
2023/02/21 10:06:11;;;;;;;2.20;1.17;;;14.00;95.70;;;;;;4161134;28;20045;-63
2023/02/21 10:08:35;;;;;;;4.57;1.80;;;14.00;96.00;;;;;;4163722;28;20076;-67
2023/02/21 10:10:57;;;;;;;3.17;1.77;;;14.00;96.00;;;;;;4162846;28;20021;-62
2023/02/21 10:13:12;;;;;;;4.50;1.67;;;14.10;95.60;;;;;;4163378;28;20138;-62
2023/02/21 10:15:33;;;;;;;1.87;1.40;;;14.10;95.90;;;;;;4162896;28;20378;-64
2023/02/21 10:17:44;;;;;;;;;;;14.00;95.90;;;;;;4164233;28;20042;-66
2023/02/21 10:19:51;;;;;;;4.80;1.60;;;13.90;95.70;;;;;;4162918;28;20361;-64
2023/02/21 10:21:57;;;;;;;7.97;2.83;;;13.80;95.90;;;;;;4163737;28;20038;-66
2023/02/21 10:24:04;;;;;;;7.23;2.43;;;13.60;96.00;;;;;;4162436;28;20068;-65
2023/02/21 10:26:11;;;;;;;2.40;1.90;;;13.60;96.40;;;;;;4163528;28;20033;-64
2023/02/21 10:28:18;;;;;;;14.13;6.43;;;13.60;96.40;;;;;;4162326;28;20045;-63
2023/02/21 10:30:25;;;;;;;11.37;2.50;;;13.70;96.50;;;;;;4163118;28;20049;-63
2023/02/21 10:32:27;;;;;;;3.27;2.70;;;13.70;96.50;;;;;;4162481;28;20029;-63
2023/02/21 10:34:31;;;;;;;5.27;2.40;;;13.80;96.40;;;;;;4163048;28;20029;-62
2023/02/21 10:36:34;;;;;;;4.67;1.53;;;13.80;96.30;;;;;;4162630;28;20477;-63
2023/02/21 10:38:36;;;;;;;3.17;1.30;;;13.80;96.40;;;;;;4163286;28;20041;-65
2023/02/21 10:41:00;;;;;;;4.83;1.50;;;13.80;96.30;;;;;;4162818;28;20041;-65
2023/02/21 10:43:27;;;;;;;3.47;1.93;;;13.80;96.20;;;;;;4163058;28;20107;-65
2023/02/21 10:45:46;;;;;;;4.47;1.87;;;13.70;96.40;;;;;;4162252;28;20071;-64
2023/02/21 10:47:57;;;;;;;2.33;1.50;;;13.60;96.30;;;;;;4163271;28;20523;-67
2023/02/21 10:50:05;;;;;;;2.63;1.40;;;13.60;96.30;;;;;;4162194;28;20101;-66
2023/02/21 10:52:16;;;;;;;3.13;1.43;;;13.60;96.30;;;;;;4162318;28;20033;-62
2023/02/21 10:54:20;;;;;;;5.70;1.55;;;13.50;96.30;;;;;;4162216;28;20095;-66
2023/02/21 10:56:24;;;;;;;4.50;1.63;;;13.50;96.50;;;;;;4162972;28;20091;-63
2023/02/21 10:58:26;;;;;;;11.00;6.60;;;13.50;96.60;;;;;;4162248;28;20075;-62
2023/02/21 11:00:36;;;;;;;5.40;3.00;;;13.60;96.80;;;;;;4162615;28;20041;-63
2023/02/21 11:02:40;;;;;;;22.47;10.17;;;13.70;96.70;;;;;;4162067;28;20041;-63
2023/02/21 11:04:41;;;;;;;5.33;2.93;;;13.80;96.60;;;;;;4162581;28;20045;-63
2023/02/21 11:06:53;;;;;;;7.87;5.27;;;13.80;96.60;;;;;;4162279;28;20092;-64
2023/02/21 11:08:54;;;;;;;2.60;1.80;;;13.90;96.70;;;;;;4163039;28;20026;-63
2023/02/21 11:10:55;;;;;;;3.80;1.73;;;14.00;96.40;;;;;;4162584;28;20030;-62
2023/02/21 11:13:04;;;;;;;5.07;2.27;;;13.90;96.40;;;;;;4162044;28;20547;-63
2023/02/21 11:15:16;;;;;;;6.20;1.67;;;13.90;96.80;;;;;;4162885;28;20033;-64
2023/02/21 11:17:21;;;;;;;4.83;1.70;;;14.00;96.60;;;;;;4162268;28;20079;-62
2023/02/21 11:19:22;;;;;;;6.63;3.10;;;13.90;96.60;;;;;;4162619;28;20049;-63
2023/02/21 11:21:23;;;;;;;1.60;1.37;;;14.00;96.80;;;;;;4161708;28;20040;-62
2023/02/21 11:23:31;;;;;;;7.83;2.00;;;14.00;96.50;;;;;;4161335;28;20095;-63
2023/02/21 11:25:38;;;;;;;3.57;2.23;;;14.00;96.80;;;;;;4161773;28;20088;-62
2023/02/21 11:27:39;;;;;;;5.03;2.20;;;14.00;96.60;;;;;;4162840;28;20486;-63
2023/02/21 11:29:44;;;;;;;4.67;2.67;;;14.00;96.80;;;;;;4161563;28;20038;-62
2023/02/21 11:31:45;;;;;;;9.50;3.87;;;14.00;96.60;;;;;;4162922;28;20074;-62
2023/02/21 11:33:59;;;;;;;7.97;2.17;;;14.10;96.80;;;;;;4161759;28;20026;-62
2023/02/21 11:36:16;;;;;;;6.60;1.67;;;14.10;96.60;;;;;;4161279;28;20037;-63
2023/02/21 11:38:46;;;;;;;3.70;2.13;;;13.90;96.60;;;;;;4161798;28;20095;-62
2023/02/21 11:40:50;;;;;;;6.83;2.00;;;13.90;96.70;;;;;;4162331;28;20059;-62
2023/02/21 11:43:08;;;;;;;3.80;1.87;;;13.90;96.90;;;;;;4161284;28;20465;-62
2023/02/21 11:45:17;;;;;;;6.13;4.27;;;14.10;97.00;;;;;;4162057;28;20428;-63
2023/02/21 11:47:21;;;;;;;4.73;1.80;;;14.10;97.00;;;;;;4161005;28;20091;-62
2023/02/21 11:49:31;;;;;;;2.93;1.60;;;14.10;96.70;;;;;;4162302;28;20559;-62
2023/02/21 11:51:46;;;;;;;2.78;1.65;;;14.10;96.60;;;;;;4160839;28;20374;-62
2023/02/21 11:53:47;;;;;;;5.90;1.90;;;14.00;96.80;;;;;;4162140;28;20029;-63
2023/02/21 11:56:17;;;;;;;6.50;2.40;;;14.10;96.90;;;;;;4161144;28;20084;-63
2023/02/21 11:58:28;;;;;;;7.82;2.55;;;14.10;97.00;;;;;;4161983;28;20033;-64
2023/02/21 12:01:00;;;;;;;3.40;1.90;;;14.00;97.10;;;;;;4161062;28;20033;-64
2023/02/21 12:03:22;;;;;;;5.93;2.40;;;14.00;97.20;;;;;;4160848;28;20387;-64
2023/02/21 12:05:41;;;;;;;7.20;2.27;;;14.10;97.50;;;;;;4161559;28;20398;-63
2023/02/21 12:08:15;;;;;;;6.50;1.23;;;14.10;97.00;;;;;;4160375;28;20103;-63
2023/02/21 12:10:25;;;;;;;4.80;2.27;;;14.10;97.00;;;;;;4162414;28;20551;-64
2023/02/21 12:12:41;;;;;;;2.30;1.60;;;14.10;97.10;;;;;;4160772;28;20033;-62
2023/02/21 12:14:51;;;;;;;4.37;2.00;;;14.10;97.10;;;;;;4161708;28;20287;-62
2023/02/21 12:17:28;;;;;;;4.72;1.70;;;14.10;97.30;;;;;;4160780;28;20107;-64
2023/02/21 12:19:47;;;;;;;3.83;1.53;;;14.00;97.40;;;;;;4161864;28;20410;-63
2023/02/21 12:22:10;;;;;;;9.33;2.30;;;13.90;97.60;;;;;;4160577;28;20053;-62
2023/02/21 12:24:30;;;;;;;5.03;2.37;;;13.90;97.80;;;;;;4161615;28;20079;-64
2023/02/21 12:26:39;;;;;;;;;;;13.90;97.80;;;;;;4161203;28;20033;-64
2023/02/21 12:29:07;;;;;;;4.17;1.90;;;13.90;97.90;;;;;;4161390;28;20235;-61
2023/02/21 12:31:15;;;;;;;6.70;2.10;;;13.80;98.10;;;;;;4160921;28;20415;-67
2023/02/21 12:33:28;;;;;;;6.30;2.40;;;13.70;98.20;;;;;;4161120;28;20083;-63
2023/02/21 12:35:51;;;;;;;6.23;3.83;;;13.70;98.30;;;;;;4159692;28;20099;-64
2023/02/21 12:38:10;;;;;;;10.87;4.63;;;13.60;98.40;;;;;;4160868;28;20072;-63
2023/02/21 12:40:19;;;;;;;12.40;4.20;;;13.60;98.60;;;;;;4161918;28;20552;-64
2023/02/21 12:42:47;;;;;;;8.07;4.30;;;13.50;98.60;;;;;;4160132;28;20045;-64
2023/02/21 12:45:00;;;;;;;3.33;2.43;;;13.50;98.70;;;;;;4161581;28;20033;-64
2023/02/21 12:47:10;;;;;;;13.63;5.40;;;13.40;98.80;;;;;;4160597;28;20033;-63
2023/02/21 12:49:48;;;;;;;10.03;3.20;;;13.40;99.00;;;;;;4161567;28;20067;-62
2023/02/21 12:52:21;;;;;;;3.03;1.70;;;13.50;99.00;;;;;;4160272;28;20123;-64
2023/02/21 12:54:38;;;;;;;5.20;1.80;;;13.60;98.90;;;;;;4159919;28;20092;-63
2023/02/21 12:56:58;;;;;;;5.10;2.20;;;13.80;98.90;;;;;;4160248;28;20743;-63
2023/02/21 12:59:03;;;;;;;6.00;2.50;;;13.90;98.80;;;;;;4161092;28;20084;-63
2023/02/21 13:01:10;;;;;;;5.50;1.90;;;14.10;98.70;;;;;;4160577;28;20092;-66
2023/02/21 13:03:42;;;;;;;4.50;2.00;;;14.10;98.50;;;;;;4161257;28;20033;-63
2023/02/21 13:05:49;;;;;;;4.20;1.60;;;14.20;98.40;;;;;;4160827;28;20083;-63
2023/02/21 13:08:02;;;;;;;3.33;2.20;;;14.10;98.50;;;;;;4160583;28;20049;-62
2023/02/21 13:10:15;;;;;;;5.57;2.20;;;14.10;98.60;;;;;;4161057;28;20049;-63
2023/02/21 13:12:32;;;;;;;2.90;1.80;;;14.10;98.60;;;;;;4160656;28;20030;-64
2023/02/21 13:14:40;;;;;;;4.73;2.27;;;14.00;98.70;;;;;;4160815;28;20076;-65
2023/02/21 13:16:41;;;;;;;4.97;2.00;;;13.90;98.80;;;;;;4160109;28;20026;-64